Time;durP1;ratioP1;P1;durP2;ratioP2;P2;SDS_P1;SDS_P2;PMS_P1;PMS_P2;Temp;Humidity;BMP_temperature;BMP_pressure;BME280_temperature;BME280_humidity;BME280_pressure;Samples;Min_cycle;Max_cycle;Signal;HPM_P1;HPM_P2
2021/04/07 00:00:11;;;;;;;6.77;3.23;;;;;;;-1.02;87.44;98635.50;5091960;28;20048;-79
2021/04/07 00:02:38;;;;;;;4.37;3.47;;;;;;;-1.01;87.83;98640.75;5091657;28;20546;-79
2021/04/07 00:05:08;;;;;;;4.13;3.67;;;;;;;-0.92;87.52;98631.97;5090747;28;20056;-79
2021/04/07 00:07:34;;;;;;;8.10;3.63;;;;;;;-0.91;87.53;98635.47;5076717;28;20075;-79
2021/04/07 00:10:01;;;;;;;4.53;3.00;;;;;;;-0.86;86.51;98635.94;5091144;28;20052;-79
2021/04/07 00:12:27;;;;;;;4.13;3.50;;;;;;;-0.95;87.38;98637.56;5090512;28;20536;-79
2021/04/07 00:14:57;;;;;;;4.63;3.53;;;;;;;-0.85;87.23;98640.31;5091091;28;20389;-79
2021/04/07 00:17:23;;;;;;;6.00;3.42;;;;;;;-0.94;87.29;98639.25;5089557;28;20051;-79
2021/04/07 00:19:50;;;;;;;4.33;3.23;;;;;;;-0.97;86.82;98636.81;5091573;28;20056;-79
2021/04/07 00:22:16;;;;;;;8.37;3.13;;;;;;;-1.00;87.38;98646.91;5081283;28;20075;-79
2021/04/07 00:24:43;;;;;;;4.40;3.17;;;;;;;-1.12;87.78;98630.91;5089699;28;20048;-78
2021/04/07 00:27:35;;;;;;;4.67;3.50;;;;;;;-1.08;87.73;98636.88;5090737;28;20052;-79
2021/04/07 00:30:03;;;;;;;5.87;3.90;;;;;;;-1.05;87.28;98638.41;5091162;28;20138;-79
2021/04/07 00:32:29;;;;;;;3.13;2.83;;;;;;;-1.03;87.52;98653.34;5091061;28;20043;-79
2021/04/07 00:34:56;;;;;;;5.77;4.30;;;;;;;-1.10;87.44;98633.44;5092844;28;20529;-78
2021/04/07 00:37:22;;;;;;;5.57;3.80;;;;;;;-0.99;88.03;98638.78;5093475;28;20044;-79
2021/04/07 00:39:49;;;;;;;13.63;4.13;;;;;;;-0.90;87.64;98654.03;5101927;28;20504;-79
2021/04/07 00:42:15;;;;;;;5.47;3.77;;;;;;;-0.92;87.74;98650.66;5092864;28;20048;-79
2021/04/07 00:44:41;;;;;;;4.50;3.90;;;;;;;-0.90;87.32;98656.72;5092186;28;20048;-79
2021/04/07 00:47:08;;;;;;;4.80;3.67;;;;;;;-1.03;86.90;98661.34;5093203;28;20052;-79
2021/04/07 00:49:34;;;;;;;5.67;3.83;;;;;;;-1.00;87.89;98662.91;5093274;28;20097;-79
2021/04/07 00:52:02;;;;;;;3.77;3.33;;;;;;;-1.13;87.37;98655.91;5093153;28;20044;-79
2021/04/07 00:54:28;;;;;;;3.67;3.23;;;;;;;-1.23;87.19;98644.28;5092406;28;20092;-79
2021/04/07 00:56:55;;;;;;;4.00;3.60;;;;;;;-1.09;87.42;98659.16;5093114;28;20056;-79
2021/04/07 00:59:22;;;;;;;8.33;4.67;;;;;;;-1.13;87.13;98645.25;5093197;28;20075;-79
2021/04/07 01:01:49;;;;;;;3.73;3.13;;;;;;;-1.04;87.23;98661.47;5092561;28;20048;-79
2021/04/07 01:04:18;;;;;;;6.20;3.90;;;;;;;-1.02;87.34;98664.84;5091782;28;20040;-78
2021/04/07 01:06:47;;;;;;;5.20;3.27;;;;;;;-1.08;87.02;98664.38;5091527;28;20048;-79
2021/04/07 01:09:14;;;;;;;5.30;3.70;;;;;;;-1.09;86.92;98668.00;5093057;28;20396;-77
2021/04/07 01:11:40;;;;;;;4.93;3.10;;;;;;;-1.13;87.49;98669.25;5071597;28;20098;-77
2021/04/07 01:14:06;;;;;;;3.93;3.13;;;;;;;-1.14;87.52;98678.22;5072292;28;20056;-77
2021/04/07 01:16:33;;;;;;;4.40;3.20;;;;;;;-1.14;87.26;98669.38;5085899;28;20076;-77
2021/04/07 01:18:59;;;;;;;4.07;3.20;;;;;;;-1.13;87.28;98681.72;5092159;28;20503;-77
2021/04/07 01:21:26;;;;;;;4.47;2.73;;;;;;;-1.20;86.45;98683.19;5092350;28;20404;-78
2021/04/07 01:23:53;;;;;;;5.50;3.33;;;;;;;-1.17;86.48;98674.94;5091300;28;20060;-78
2021/04/07 01:26:19;;;;;;;4.47;2.90;;;;;;;-1.14;86.30;98672.03;5092282;28;20089;-77
2021/04/07 01:28:46;;;;;;;5.67;3.30;;;;;;;-1.36;86.68;98656.88;5091535;28;20048;-78
2021/04/07 01:31:12;;;;;;;4.20;3.07;;;;;;;-1.15;86.92;98689.84;5092496;28;20063;-78
2021/04/07 01:33:39;;;;;;;4.00;2.17;;;;;;;-1.16;85.84;98688.16;5092399;28;20052;-78
2021/04/07 01:36:05;;;;;;;6.40;3.23;;;;;;;-1.25;86.42;98680.88;5091836;28;20048;-78
2021/04/07 01:38:31;;;;;;;3.97;3.10;;;;;;;-1.20;86.37;98693.88;5092118;28;20120;-78
2021/04/07 01:41:00;;;;;;;4.57;3.33;;;;;;;-1.26;86.41;98679.19;5092696;28;20097;-78
2021/04/07 01:43:28;;;;;;;4.97;3.13;;;;;;;-1.30;86.83;98685.72;5092197;28;20059;-78
2021/04/07 01:45:57;;;;;;;5.40;3.37;;;;;;;-1.27;86.89;98686.31;5091734;28;20590;-77
2021/04/07 01:48:25;;;;;;;4.13;2.83;;;;;;;-1.33;86.55;98683.31;5091438;28;20080;-78
2021/04/07 01:50:51;;;;;;;7.77;3.33;;;;;;;-1.38;87.30;98686.34;5092193;28;20052;-78
2021/04/07 01:53:19;;;;;;;5.93;3.17;;;;;;;-1.38;87.16;98694.34;5091612;28;20044;-79
2021/04/07 01:55:46;;;;;;;6.10;3.27;;;;;;;-1.34;87.46;98697.59;5091183;28;20052;-78
2021/04/07 01:58:21;;;;;;;5.10;3.80;;;;;;;-1.43;87.50;98686.72;5091699;28;20048;-78
2021/04/07 02:06:47;;;;;;;4.35;2.65;;;;;;;-1.44;87.70;98705.50;4964306;28;20141;-78
2021/04/07 02:09:15;;;;;;;5.33;3.47;;;;;;;-1.44;87.43;98708.16;5052660;28;20143;-78
2021/04/07 02:11:41;;;;;;;7.33;3.27;;;;;;;-1.44;87.57;98711.66;5067131;28;20060;-78
2021/04/07 02:14:09;;;;;;;4.83;3.50;;;;;;;-1.51;87.30;98698.94;5054756;28;20122;-78
2021/04/07 02:16:35;;;;;;;5.00;3.63;;;;;;;-1.48;87.21;98704.88;5055862;28;20049;-78
2021/04/07 02:19:06;;;;;;;4.57;3.30;;;;;;;-1.44;87.47;98717.00;5075920;28;20466;-78
2021/04/07 02:21:32;;;;;;;10.33;4.03;;;;;;;-1.49;87.13;98711.19;5075931;28;20053;-78
2021/04/07 02:23:58;;;;;;;4.50;3.07;;;;;;;-1.44;87.15;98725.00;5075169;28;20048;-78
2021/04/07 02:26:24;;;;;;;5.87;3.30;;;;;;;-1.41;87.10;98720.41;5074677;28;20044;-78
2021/04/07 02:28:51;;;;;;;6.33;3.67;;;;;;;-1.37;87.03;98719.19;5075517;28;20048;-77
2021/04/07 02:31:18;;;;;;;6.60;3.47;;;;;;;-1.32;86.61;98723.19;5075121;28;20585;-77
2021/04/07 02:33:44;;;;;;;10.57;3.47;;;;;;;-1.27;85.85;98736.16;5071737;28;20421;-78
2021/04/07 02:36:10;;;;;;;6.70;3.07;;;;;;;-1.30;86.33;98731.91;5054905;28;20045;-78
2021/04/07 02:38:36;;;;;;;7.60;2.90;;;;;;;-1.26;85.97;98732.53;5055536;28;20052;-78
2021/04/07 02:41:03;;;;;;;9.30;3.53;;;;;;;-1.23;85.81;98736.75;5055813;28;20049;-78
2021/04/07 02:43:29;;;;;;;8.80;3.30;;;;;;;-1.26;86.13;98735.22;5075348;28;20056;-77
2021/04/07 02:45:55;;;;;;;6.17;3.30;;;;;;;-1.28;85.94;98738.00;5074740;28;20051;-77
2021/04/07 02:48:22;;;;;;;7.07;3.30;;;;;;;-1.30;86.43;98745.25;5075372;28;20076;-78
2021/04/07 02:50:49;;;;;;;6.73;2.77;;;;;;;-1.43;86.26;98729.38;5075280;28;20049;-77
2021/04/07 02:53:15;;;;;;;5.63;3.50;;;;;;;-1.27;86.35;98758.34;5075474;28;20049;-78
2021/04/07 02:55:41;;;;;;;3.27;2.60;;;;;;;-1.23;85.66;98753.63;5074533;28;20060;-78
2021/04/07 02:58:08;;;;;;;6.67;3.60;;;;;;;-1.27;85.44;98761.00;5075585;28;20059;-78
2021/04/07 03:00:34;;;;;;;10.07;4.30;;;;;;;-1.22;85.69;98757.97;5074995;28;20048;-78
2021/04/07 03:03:00;;;;;;;11.60;4.07;;;;;;;-1.18;85.61;98763.94;5075262;28;20097;-78
2021/04/07 03:05:27;;;;;;;6.60;3.80;;;;;;;-1.17;85.56;98761.16;5074524;28;20045;-78
2021/04/07 03:07:54;;;;;;;7.47;3.83;;;;;;;-1.18;85.39;98764.78;5074743;28;20067;-78
2021/04/07 03:10:20;;;;;;;8.27;3.37;;;;;;;-1.21;86.00;98761.50;5073300;28;20081;-78
2021/04/07 03:12:46;;;;;;;7.27;3.53;;;;;;;-1.22;85.42;98768.66;5056770;28;20646;-78
2021/04/07 03:15:12;;;;;;;7.97;4.07;;;;;;;-1.21;84.59;98775.69;5074143;28;20059;-78
2021/04/07 03:17:39;;;;;;;6.47;4.23;;;;;;;-1.27;84.95;98770.84;5074846;28;20048;-77
2021/04/07 03:20:08;;;;;;;7.57;3.33;;;;;;;-1.27;84.52;98776.19;5074908;28;20102;-78
2021/04/07 03:22:35;;;;;;;4.40;2.93;;;;;;;-1.25;84.15;98783.09;5074599;28;20511;-77
2021/04/07 03:25:02;;;;;;;5.07;3.17;;;;;;;-1.20;84.30;98780.06;5073900;28;20056;-78
2021/04/07 03:27:28;;;;;;;8.07;3.40;;;;;;;-1.27;83.60;98766.34;5074476;28;20044;-78
2021/04/07 03:29:58;;;;;;;5.17;3.53;;;;;;;-1.31;84.06;98756.03;5074615;28;20052;-78
2021/04/07 03:32:24;;;;;;;;;;;;;;;-1.15;83.03;98777.03;5075413;28;20143;-78
2021/04/07 03:34:51;;;;;;;5.30;3.10;;;;;;;-1.15;83.11;98777.03;5074077;28;19943;-78
2021/04/07 03:37:17;;;;;;;8.93;3.57;;;;;;;-1.26;82.38;98775.22;5074212;28;20060;-78
2021/04/07 03:39:44;;;;;;;6.70;3.27;;;;;;;-1.24;82.24;98789.28;5074184;28;20049;-78
2021/04/07 03:42:10;;;;;;;4.53;3.33;;;;;;;-1.29;82.44;98770.97;5074357;28;20052;-78
2021/04/07 03:44:36;;;;;;;7.43;4.37;;;;;;;-1.20;82.23;98787.22;5073522;28;20489;-78
2021/04/07 03:47:03;;;;;;;7.67;3.70;;;;;;;-1.27;82.26;98784.19;5074359;28;20044;-78
2021/04/07 03:49:31;;;;;;;4.67;2.80;;;;;;;-1.33;82.36;98782.81;5074462;28;20049;-78
2021/04/07 03:51:57;;;;;;;5.93;3.53;;;;;;;-1.35;82.36;98784.78;5074102;28;20094;-78
2021/04/07 03:54:25;;;;;;;8.90;3.93;;;;;;;-1.18;82.26;98803.97;5073660;28;20101;-78
2021/04/07 03:56:56;;;;;;;5.57;3.57;;;;;;;-1.20;81.98;98814.75;5073780;28;20516;-78
2021/04/07 03:59:23;;;;;;;10.47;3.97;;;;;;;-1.21;82.10;98807.69;5073911;28;20060;-77
2021/04/07 04:01:49;;;;;;;4.00;3.27;;;;;;;-1.31;81.76;98794.25;5074278;28;20049;-77
2021/04/07 04:04:15;;;;;;;7.97;3.87;;;;;;;-1.16;82.02;98815.34;5073177;28;20052;-77
2021/04/07 04:06:45;;;;;;;6.47;4.50;;;;;;;-1.25;82.14;98816.91;5073730;28;20068;-77
2021/04/07 04:09:11;;;;;;;6.53;4.30;;;;;;;-1.17;82.35;98819.84;5073649;28;20056;-79
2021/04/07 04:11:38;;;;;;;6.23;4.10;;;;;;;-1.19;82.41;98819.13;5056658;28;20055;-78
2021/04/07 04:14:05;;;;;;;9.20;3.93;;;;;;;-1.30;81.97;98817.25;5060040;28;20049;-79
2021/04/07 04:16:31;;;;;;;5.33;3.40;;;;;;;-1.20;81.40;98830.75;5071558;28;20489;-79
2021/04/07 04:18:57;;;;;;;7.83;3.30;;;;;;;-1.22;82.11;98837.16;5056013;28;20079;-79
2021/04/07 04:21:24;;;;;;;6.87;3.57;;;;;;;-1.32;82.22;98837.03;5072558;28;20048;-79
2021/04/07 04:23:50;;;;;;;6.43;3.90;;;;;;;-1.19;81.76;98850.25;5073895;28;20128;-80
2021/04/07 04:26:16;;;;;;;7.17;3.43;;;;;;;-1.15;81.81;98857.91;5072770;28;20090;-79
2021/04/07 04:28:43;;;;;;;11.50;4.00;;;;;;;-1.15;82.08;98841.91;5072608;28;20056;-79
2021/04/07 04:31:10;;;;;;;9.03;3.90;;;;;;;-1.14;81.38;98856.13;5073462;28;20462;-80
2021/04/07 04:33:36;;;;;;;6.83;3.93;;;;;;;-1.19;81.01;98864.47;5073309;28;20044;-80
2021/04/07 04:36:03;;;;;;;5.13;4.03;;;;;;;-1.33;81.64;98854.00;5072928;28;20045;-80
2021/04/07 04:38:29;;;;;;;6.53;4.13;;;;;;;-1.23;82.16;98856.78;5073432;28;20048;-80
2021/04/07 04:40:55;;;;;;;7.53;4.47;;;;;;;-1.18;81.00;98870.66;5073190;28;20409;-80
2021/04/07 04:43:21;;;;;;;8.80;3.60;;;;;;;-1.23;81.08;98867.47;5073098;28;20523;-79
2021/04/07 04:45:48;;;;;;;7.10;4.20;;;;;;;-1.26;80.93;98874.75;5072459;28;20052;-80
2021/04/07 04:48:15;;;;;;;10.33;4.60;;;;;;;-1.28;80.98;98873.16;5073101;28;20056;-79
2021/04/07 04:50:41;;;;;;;8.33;3.30;;;;;;;-1.26;80.50;98890.75;5073316;28;20055;-80
2021/04/07 04:53:09;;;;;;;4.67;2.97;;;;;;;-1.13;80.42;98896.00;5073067;28;20044;-80
2021/04/07 04:55:35;;;;;;;9.03;3.70;;;;;;;-1.28;81.14;98899.81;5072332;28;20052;-80
2021/04/07 04:58:01;;;;;;;4.07;3.03;;;;;;;-1.23;80.49;98915.47;5072977;28;20056;-80
2021/04/07 05:00:27;;;;;;;4.93;3.03;;;;;;;-1.22;79.52;98906.50;5072823;28;20067;-80
2021/04/07 05:02:54;;;;;;;4.80;3.23;;;;;;;-1.17;79.97;98920.38;5072527;28;20098;-79
2021/04/07 05:05:21;;;;;;;7.20;3.80;;;;;;;-1.18;80.19;98932.00;5072451;28;20056;-79
2021/04/07 05:07:47;;;;;;;5.90;3.37;;;;;;;-1.21;80.33;98933.06;5072372;28;20048;-80
2021/04/07 05:10:13;;;;;;;8.33;3.03;;;;;;;-1.20;79.67;98936.63;5071539;28;20459;-79
2021/04/07 05:12:39;;;;;;;5.07;3.07;;;;;;;-1.17;79.09;98934.56;5072757;28;20071;-79
2021/04/07 05:15:10;;;;;;;7.63;2.90;;;;;;;-1.19;79.13;98931.16;5072260;28;20052;-80
2021/04/07 05:17:36;;;;;;;4.67;2.70;;;;;;;-1.28;79.21;98922.03;5066491;28;20489;-80
2021/04/07 05:20:05;;;;;;;3.20;2.63;;;;;;;-1.18;79.10;98935.50;5051071;28;20056;-79
2021/04/07 05:22:32;;;;;;;3.53;2.50;;;;;;;-1.21;78.65;98935.75;5051950;28;20472;-80
2021/04/07 05:24:58;;;;;;;3.00;2.47;;;;;;;-1.14;79.50;98942.31;5051372;28;20057;-80
2021/04/07 05:27:25;;;;;;;4.87;2.97;;;;;;;-1.16;79.09;98951.41;5052434;28;20417;-80
2021/04/07 05:29:51;;;;;;;3.00;2.67;;;;;;;-1.23;79.13;98939.47;5056812;28;20045;-80
2021/04/07 05:32:19;;;;;;;5.73;2.93;;;;;;;-1.11;79.53;98974.09;5059187;28;20044;-80
2021/04/07 05:34:47;;;;;;;4.53;2.60;;;;;;;-1.18;78.77;98956.84;5072040;28;20070;-80
2021/04/07 05:37:14;;;;;;;5.53;2.50;;;;;;;-1.04;78.31;98954.97;5071661;28;20374;-80
2021/04/07 05:39:41;;;;;;;7.00;3.13;;;;;;;-1.08;78.32;98971.19;5076057;28;20052;-80
2021/04/07 05:42:11;;;;;;;8.73;2.93;;;;;;;-1.18;78.90;98969.34;5078991;28;20492;-80
2021/04/07 05:44:37;;;;;;;3.92;2.50;;;;;;;-1.14;78.49;98969.00;5078508;28;20048;-80
2021/04/07 05:47:03;;;;;;;13.50;2.43;;;;;;;-1.13;78.24;98980.50;5078886;28;20048;-80
2021/04/07 05:49:29;;;;;;;6.27;2.80;;;;;;;-1.01;78.23;98998.28;5078895;28;20075;-80
2021/04/07 05:51:56;;;;;;;6.10;2.63;;;;;;;-1.05;78.39;98987.94;5078841;28;20052;-80
2021/04/07 05:54:22;;;;;;;4.27;3.03;;;;;;;-1.08;77.91;98989.88;5078801;28;20053;-80
2021/04/07 05:56:49;;;;;;;5.70;3.07;;;;;;;-0.95;77.87;98999.63;5078651;28;20131;-80
2021/04/07 05:59:15;;;;;;;3.40;2.60;;;;;;;-1.04;77.30;99000.31;5078845;28;20098;-80
2021/04/07 06:01:42;;;;;;;8.47;2.50;;;;;;;-1.03;78.38;99002.88;5078739;28;20056;-80
2021/04/07 06:04:09;;;;;;;10.37;2.90;;;;;;;-0.92;78.74;99018.94;5069918;28;20053;-80
2021/04/07 06:06:54;;;;;;;8.27;2.73;;;;;;;-0.96;77.57;99005.94;5058375;28;20051;-80
2021/04/07 06:09:21;;;;;;;3.93;2.30;;;;;;;-1.04;77.94;99000.31;5058835;28;20480;-80
2021/04/07 06:11:57;;;;;;;3.17;2.47;;;;;;;-0.93;77.65;99022.56;5076036;28;20052;-80
2021/04/07 06:14:27;;;;;;;6.90;2.77;;;;;;;-0.84;77.11;99039.72;5078250;28;20048;-79
2021/04/07 06:16:53;;;;;;;6.85;2.50;;;;;;;-0.95;76.56;99023.63;5079174;28;20051;-80
2021/04/07 06:19:22;;;;;;;5.80;2.63;;;;;;;-0.96;76.20;99025.47;5079196;28;20048;-79
2021/04/07 06:21:51;;;;;;;8.35;3.92;;;;;;;-0.88;76.62;99038.22;5077748;28;20056;-79
2021/04/07 06:24:18;;;;;;;3.83;2.90;;;;;;;-0.56;75.52;99053.63;5078282;28;20064;-79
2021/04/07 06:26:44;;;;;;;3.20;2.30;;;;;;;-0.50;75.25;99039.81;5078224;28;20367;-79
2021/04/07 06:29:14;;;;;;;7.37;2.97;;;;;;;-0.50;74.10;99050.47;5078686;28;20048;-80
2021/04/07 06:31:40;;;;;;;4.63;3.10;;;;;;;-0.54;74.11;99033.03;5078586;28;20052;-79
2021/04/07 06:34:10;;;;;;;4.73;3.13;;;;;;;-0.30;75.15;99065.00;5078100;28;20051;-79
2021/04/07 06:36:36;;;;;;;8.10;3.10;;;;;;;-0.36;73.70;99070.81;5078084;28;20052;-77
2021/04/07 06:39:06;;;;;;;9.17;2.90;;;;;;;-0.33;74.05;99080.41;5078506;28;20382;-77
2021/04/07 06:41:32;;;;;;;6.60;3.13;;;;;;;-0.38;73.96;99068.28;5078659;28;20067;-78
2021/04/07 06:43:59;;;;;;;6.67;3.30;;;;;;;-0.47;73.81;99076.13;5078222;28;20048;-77
2021/04/07 06:46:26;;;;;;;5.60;3.20;;;;;;;-0.44;74.48;99095.41;5077690;28;20044;-77
2021/04/07 06:48:54;;;;;;;5.70;2.70;;;;;;;-0.39;73.76;99076.41;5078481;28;20599;-78
2021/04/07 06:51:22;;;;;;;4.97;3.33;;;;;;;-0.31;73.06;99079.31;5075244;28;20048;-78
2021/04/07 06:53:50;;;;;;;2.87;2.47;;;;;;;-0.29;73.43;99087.22;5075436;28;20056;-78
2021/04/07 06:56:17;;;;;;;5.40;3.13;;;;;;;-0.39;71.97;99087.94;5073955;28;20465;-78
2021/04/07 06:58:49;;;;;;;4.73;2.70;;;;;;;-0.36;72.67;99095.69;5074501;28;20060;-77
2021/04/07 07:01:22;;;;;;;8.10;3.10;;;;;;;-0.34;72.86;99087.56;5076830;28;20435;-78
2021/04/07 07:03:49;;;;;;;8.10;3.73;;;;;;;-0.38;71.81;99089.63;5075115;28;20752;-79
2021/04/07 07:06:20;;;;;;;5.83;2.93;;;;;;;-0.41;72.14;99105.03;5074318;28;20041;-78
2021/04/07 07:08:48;;;;;;;7.27;3.27;;;;;;;-0.43;73.00;99093.63;5075055;28;20071;-78
2021/04/07 07:11:33;;;;;;;12.07;3.10;;;;;;;-0.15;71.13;99103.06;5073322;28;20485;-79
2021/04/07 07:14:01;;;;;;;8.27;3.57;;;;;;;0.25;70.17;99099.94;5059354;28;20045;-78
2021/04/07 07:16:28;;;;;;;7.03;3.50;;;;;;;-0.09;69.37;99075.84;5056937;28;20073;-79
2021/04/07 07:18:57;;;;;;;4.37;2.47;;;;;;;0.17;69.66;99091.66;5055289;28;20056;-78
2021/04/07 07:21:32;;;;;;;2.28;2.00;;;;;;;0.39;68.38;99106.00;5066667;28;20505;-79
2021/04/07 07:24:05;;;;;;;2.73;2.37;;;;;;;0.24;68.53;99113.41;5056023;28;20064;-78
2021/04/07 07:27:10;;;;;;;3.73;1.87;;;;;;;0.15;67.51;99121.19;5056862;28;20106;-78
2021/04/07 07:29:39;;;;;;;8.73;2.63;;;;;;;0.18;67.71;99128.09;5028562;28;20094;-78
2021/04/07 07:32:06;;;;;;;3.78;2.40;;;;;;;0.41;66.23;99122.81;5074379;28;20054;-78
2021/04/07 07:34:37;;;;;;;4.97;2.20;;;;;;;0.65;67.22;99126.19;5073709;28;20048;-78
2021/04/07 07:37:06;;;;;;;8.30;2.23;;;;;;;0.41;67.00;99102.25;5074651;28;20052;-78
2021/04/07 07:39:36;;;;;;;2.33;1.60;;;;;;;0.41;67.31;99131.66;5074503;28;20052;-78
2021/04/07 07:42:08;;;;;;;2.20;1.80;;;;;;;0.33;67.72;99126.94;5071753;28;20143;-78
2021/04/07 07:44:37;;;;;;;4.87;2.40;;;;;;;0.38;68.50;99129.25;5057764;28;20048;-78
2021/04/07 07:47:07;;;;;;;5.37;2.80;;;;;;;0.60;69.54;99130.19;5072717;28;20053;-78
2021/04/07 07:49:33;;;;;;;6.67;2.90;;;;;;;0.51;68.41;99145.16;5074152;28;20058;-78
2021/04/07 07:52:02;;;;;;;3.53;1.97;;;;;;;0.42;66.48;99149.44;5074159;28;20051;-78
2021/04/07 07:57:55;;;;;;;8.57;2.40;;;;;;;0.51;67.40;99150.50;5066135;28;20131;-79
2021/04/07 08:00:26;;;;;;;3.50;2.13;;;;;;;0.62;66.53;99142.50;5073809;28;20499;-78
2021/04/07 08:03:05;;;;;;;4.20;2.07;;;;;;;0.96;64.02;99160.34;5072547;28;20134;-79
2021/04/07 08:05:33;;;;;;;7.10;2.33;;;;;;;1.21;64.00;99165.41;5069166;28;20629;-79
2021/04/07 08:08:05;;;;;;;2.90;1.70;;;;;;;1.37;62.77;99154.28;5075258;28;20044;-79
2021/04/07 08:10:36;;;;;;;4.07;2.03;;;;;;;1.63;63.16;99170.03;5076199;28;20111;-79
2021/04/07 08:13:10;;;;;;;8.73;2.50;;;;;;;1.37;61.06;99178.41;5073912;28;20055;-80
2021/04/07 08:15:48;;;;;;;4.87;1.73;;;;;;;1.05;62.42;99175.66;5073237;28;20060;-80
2021/04/07 08:18:17;;;;;;;5.40;1.13;;;;;;;0.84;61.88;99178.22;5062348;28;20044;-79
2021/04/07 08:20:44;;;;;;;7.43;2.05;;;;;;;0.78;62.85;99179.56;5070582;28;20075;-79
2021/04/07 08:26:41;;;;;;;6.50;1.67;;;;;;;0.69;62.86;99194.56;4997581;28;20135;-81
2021/04/07 08:29:08;;;;;;;2.13;2.00;;;;;;;0.55;62.46;99185.91;5060134;28;20045;-80
2021/04/07 08:31:40;;;;;;;4.67;2.20;;;;;;;0.51;63.31;99199.53;5068226;28;20702;-80
2021/04/07 08:34:10;;;;;;;12.47;3.93;;;;;;;0.85;64.71;99220.09;5068834;28;20045;-79
2021/04/07 08:36:58;;;;;;;11.57;1.87;;;;;;;0.86;63.49;99201.25;5065236;28;20118;-79
2021/04/07 08:39:28;;;;;;;6.60;2.20;;;;;;;1.00;64.20;99185.91;5070167;28;20059;-79
2021/04/07 08:41:55;;;;;;;4.43;2.05;;;;;;;1.09;63.44;99203.91;5070355;28;20041;-80
2021/04/07 08:44:26;;;;;;;2.57;2.10;;;;;;;1.17;63.42;99203.28;5072151;28;20055;-79
2021/04/07 08:46:58;;;;;;;6.60;1.83;;;;;;;0.99;62.95;99184.19;5070484;28;20063;-79
2021/04/07 08:49:39;;;;;;;4.47;2.10;;;;;;;1.09;62.28;99184.31;5068385;28;20135;-79
2021/04/07 08:52:15;;;;;;;3.93;2.57;;;;;;;1.48;63.41;99207.00;5070240;28;20047;-79
2021/04/07 08:54:51;;;;;;;4.67;2.10;;;;;;;1.70;61.96;99215.94;5063067;28;20083;-79
2021/04/07 08:57:29;;;;;;;2.00;1.53;;;;;;;1.21;62.29;99213.59;5065609;28;20473;-80
2021/04/07 08:59:56;;;;;;;2.03;1.93;;;;;;;0.87;63.29;99213.66;5060564;28;20040;-81
2021/04/07 09:02:24;;;;;;;5.53;2.10;;;;;;;0.91;65.48;99232.16;5064249;28;20060;-80
2021/04/07 09:05:04;;;;;;;5.00;2.17;;;;;;;0.85;69.44;99245.03;5065820;28;20041;-80
2021/04/07 09:07:36;;;;;;;;;;;;;;;1.07;69.61;99240.66;5066016;28;21147;-80
2021/04/07 09:10:11;;;;;;;3.57;2.63;;;;;;;0.91;70.07;99230.31;5063443;28;20668;-80
2021/04/07 09:12:40;;;;;;;6.80;3.00;;;;;;;1.04;70.30;99235.56;5063307;28;20067;-80
2021/04/07 09:15:16;;;;;;;3.13;2.37;;;;;;;1.15;72.70;99242.72;5060264;28;20036;-80
2021/04/07 09:17:44;;;;;;;5.47;3.33;;;;;;;0.98;71.89;99241.38;5062188;28;20057;-80
2021/04/07 09:20:31;;;;;;;4.43;2.60;;;;;;;1.01;72.71;99246.47;5062013;28;20056;-80
2021/04/07 09:23:06;;;;;;;3.97;2.93;;;;;;;1.01;73.11;99250.03;5061561;28;20454;-80
2021/04/07 09:25:34;;;;;;;9.63;3.50;;;;;;;0.98;73.37;99233.34;5063480;28;20414;-80
2021/04/07 09:28:12;;;;;;;3.97;3.13;;;;;;;1.02;71.74;99224.09;5063013;28;20130;-80
2021/04/07 09:30:49;;;;;;;7.47;3.27;;;;;;;0.98;70.68;99230.66;5061440;28;20056;-80
2021/04/07 09:33:18;;;;;;;3.90;2.73;;;;;;;1.09;70.02;99224.47;5059456;28;20477;-81
2021/04/07 09:36:08;;;;;;;6.87;3.33;;;;;;;1.17;69.33;99219.34;5060777;28;20446;-80
2021/04/07 09:38:37;;;;;;;8.20;3.20;;;;;;;1.26;67.92;99223.09;5060457;28;20040;-80
2021/04/07 09:41:10;;;;;;;5.88;3.13;;;;;;;1.47;68.47;99237.44;5059946;28;20052;-80
2021/04/07 09:43:39;;;;;;;18.43;3.60;;;;;;;1.59;68.75;99228.38;5061571;28;20094;-80
2021/04/07 09:46:06;;;;;;;4.40;2.80;;;;;;;1.49;66.12;99229.25;5057553;28;20049;-80
2021/04/07 09:48:45;;;;;;;3.23;2.70;;;;;;;1.35;64.33;99228.56;5062862;28;20072;-80
2021/04/07 09:51:29;;;;;;;9.87;2.67;;;;;;;1.61;64.78;99243.50;5046428;28;20044;-80
2021/04/07 09:54:20;;;;;;;4.07;2.60;;;;;;;1.67;64.06;99248.34;5060320;28;20396;-80
2021/04/07 09:56:55;;;;;;;4.67;2.57;;;;;;;1.44;63.55;99245.72;5060867;28;20077;-82
2021/04/07 09:59:55;;;;;;;4.03;2.80;;;;;;;1.67;63.87;99242.97;5062205;28;20135;-80
2021/04/07 10:02:35;;;;;;;7.95;2.90;;;;;;;1.50;63.40;99215.75;5059381;28;20051;-80
2021/04/07 10:05:01;;;;;;;5.60;2.60;;;;;;;1.72;61.28;99230.91;5062457;28;20052;-81
2021/04/07 10:07:30;;;;;;;4.43;2.23;;;;;;;1.95;60.68;99244.22;5057672;28;20060;-80
2021/04/07 10:09:58;;;;;;;3.97;2.40;;;;;;;1.99;60.93;99226.03;5069728;28;20052;-80
2021/04/07 10:12:27;;;;;;;6.70;2.03;;;;;;;1.94;61.74;99232.66;5068143;28;20508;-80
2021/04/07 10:14:59;;;;;;;5.53;2.60;;;;;;;1.90;61.77;99249.16;5069178;28;20056;-80
2021/04/07 10:17:30;;;;;;;4.03;2.30;;;;;;;1.61;64.24;99246.16;5070407;28;20052;-80
2021/04/07 10:20:08;;;;;;;6.97;2.53;;;;;;;1.51;64.98;99244.25;5069607;28;20097;-80
2021/04/07 10:22:36;;;;;;;10.47;2.87;;;;;;;1.63;65.62;99246.91;5069646;28;20044;-80
2021/04/07 10:25:12;;;;;;;5.87;3.00;;;;;;;1.54;65.60;99265.44;5065054;28;20080;-80
2021/04/07 10:27:39;;;;;;;5.17;3.00;;;;;;;1.64;65.21;99270.03;5073083;28;20040;-80
2021/04/07 10:30:08;;;;;;;5.40;2.20;;;;;;;1.65;66.54;99258.34;5073502;28;20125;-80
2021/04/07 10:32:47;;;;;;;6.80;2.72;;;;;;;1.56;66.53;99268.81;5073128;28;20044;-80
2021/04/07 10:35:19;;;;;;;2.37;1.93;;;;;;;1.37;66.22;99277.53;5072576;28;20052;-80
2021/04/07 10:37:52;;;;;;;9.33;2.00;;;;;;;1.36;67.05;99266.94;5073169;28;20408;-80
2021/04/07 10:40:20;;;;;;;6.20;3.30;;;;;;;1.70;66.56;99278.44;5054974;28;20045;-80
2021/04/07 10:42:50;;;;;;;6.87;3.07;;;;;;;1.58;65.45;99256.19;5060974;28;20103;-79
2021/04/07 10:45:20;;;;;;;6.50;2.40;;;;;;;1.80;63.38;99257.06;5052620;28;20091;-82
2021/04/07 10:47:47;;;;;;;4.28;2.33;;;;;;;1.85;61.79;99268.28;5071404;28;20041;-80
2021/04/07 10:50:14;;;;;;;3.33;1.93;;;;;;;1.70;62.28;99246.28;5073039;28;20059;-80
2021/04/07 10:52:42;;;;;;;8.33;2.90;;;;;;;2.01;63.00;99267.00;5072959;28;20048;-80
2021/04/07 10:55:12;;;;;;;4.20;2.20;;;;;;;2.08;63.28;99268.22;5072274;28;20102;-80
2021/04/07 10:57:39;;;;;;;6.38;2.90;;;;;;;2.17;62.63;99256.72;5061171;28;20053;-80
2021/04/07 11:00:09;;;;;;;4.63;1.60;;;;;;;1.98;61.19;99251.19;5073191;28;20064;-81
2021/04/07 11:02:44;;;;;;;4.60;2.55;;;;;;;2.35;60.77;99256.97;5072252;28;20123;-80
2021/04/07 11:05:17;;;;;;;10.23;2.13;;;;;;;2.39;59.33;99260.25;5072748;28;20058;-80
2021/04/07 11:07:43;;;;;;;9.30;1.70;;;;;;;2.59;59.10;99250.47;5072316;28;20087;-79
2021/04/07 11:10:12;;;;;;;6.97;2.10;;;;;;;2.64;58.82;99254.47;5071115;28;20056;-80
2021/04/07 11:12:38;;;;;;;7.43;2.20;;;;;;;2.95;58.69;99241.09;5072333;28;20045;-80
2021/04/07 11:15:15;;;;;;;11.88;1.98;;;;;;;2.76;56.41;99257.09;5071726;28;20061;-82
2021/04/07 11:17:57;;;;;;;4.65;2.25;;;;;;;3.12;57.38;99222.66;5072126;28;20499;-80
2021/04/07 11:20:28;;;;;;;4.63;1.90;;;;;;;3.45;55.49;99228.69;5072730;28;20048;-80
2021/04/07 11:22:55;;;;;;;3.17;1.40;;;;;;;3.48;55.38;99221.19;5072401;28;20056;-81
2021/04/07 11:25:22;;;;;;;8.45;2.17;;;;;;;3.31;55.32;99251.41;5071955;28;20048;-80
2021/04/07 11:27:51;;;;;;;5.15;2.08;;;;;;;3.39;54.43;99256.09;5072430;28;20048;-80
2021/04/07 11:30:19;;;;;;;6.45;1.70;;;;;;;3.25;54.89;99252.81;5071440;28;20094;-80
2021/04/07 11:32:52;;;;;;;4.88;2.47;;;;;;;3.09;54.26;99245.25;5072204;28;20083;-82
2021/04/07 11:35:22;;;;;;;4.38;1.33;;;;;;;3.33;53.52;99230.63;5071347;28;20117;-82
2021/04/07 11:37:51;;;;;;;4.82;2.15;;;;;;;4.08;53.00;99247.16;5071821;28;20059;-79
2021/04/07 11:43:10;;;;;;;6.03;1.85;;;;;;;3.70;52.76;99232.69;5070868;28;20144;-81
2021/04/07 11:45:36;;;;;;;3.25;1.92;;;;;;;3.68;51.85;99256.19;5072115;28;20048;-81
2021/04/07 11:48:08;;;;;;;5.28;1.88;;;;;;;3.70;52.05;99230.84;5070876;28;20148;-80
2021/04/07 11:50:35;;;;;;;5.05;1.45;;;;;;;3.72;50.88;99242.31;5072130;28;20099;-80
2021/04/07 11:53:03;;;;;;;5.10;2.00;;;;;;;3.86;52.98;99251.81;5071751;28;20154;-80
2021/04/07 11:55:35;;;;;;;11.00;2.30;;;;;;;3.67;51.75;99251.78;5071576;28;20045;-81
2021/04/07 11:58:02;;;;;;;2.08;1.33;;;;;;;3.41;52.01;99263.03;5070640;28;20044;-81
2021/04/07 12:00:33;;;;;;;2.33;1.50;;;;;;;3.10;52.41;99278.31;5072028;28;20053;-81